Résultats

ALPIN TRAIL SPORT DE PICHAURIS. Édition 2015.

15 Km
11/11/2015 à 10:30:00 - ALLAUCH (13)
208 arrivant(e)s.





Place▲ Temps Dossard Nom Prenom Categ #Categ Sexe #Sexe Club Vit Moy Diplôme Partager
1 01:08:58 1131 NAVARRO NICOLAS SEM 1 M 1 13.05
2 01:10:12 1182 VOLPE MAXENCE SEM 2 M 2 PACARAID 12.82
3 01:11:18 1002 ALLARI ALEXANDRE SEM 3 M 3 OLYPIQUE CABRIES CALAS 12.62
4 01:11:28 1069 FROMENT ANTOINE SEM 4 M 4 12.59
5 01:12:26 1144 PEREZ LUCAS SEM 5 M 5 SCO STE MARGUERITE 12.43
6 01:13:13 1044 DAUMAS JEREMY SEM 6 M 6 12.29
7 01:14:20 1048 DEVAUX JULIEN SEM 7 M 7 12.11
8 01:15:04 1117 LOUAHDI KHALED SEM 8 M 8 SLC MARTIGUES 11.99
9 01:15:31 1125 MICHEL ERIC M1M 1 M 9 11.92
10 01:15:46 1062 EYMARD DAMIEN SEM 9 M 10 11.88
11 01:15:49 1180 VANDAMME NICOLAS SEM 10 M 11 11.87
12 01:16:09 1143 PELLEGRINO DANIEL M1M 2 M 12 11.82
13 01:16:54 1209 N:Anonyme 1209 P:Anonyme 1209 M1M 3 M 13 VTT SAINTE BAUME 11.70
14 01:17:21 1137 PAGEON PIERRE SEM 11 M 14 11.64
15 01:17:25 1067 FLORES SEBASTIEN SEM 12 M 15 SMAC 11.63
16 01:17:35 1153 RINGEISSEN JACQUES M2M 1 M 16 11.60
17 01:17:52 1059 ENRICO FABIEN SEM 13 M 17 AUCUN 11.56
18 01:19:31 1041 CROUHY FLORENT SEM 14 M 18 11.32
19 01:19:56 1175 TARDIEU GUILLAUME SEM 15 M 19 AIL ROUSSET 11.26
20 01:20:02 1185 YVAN GUILLEMAIN M1M 4 M 20 11.25
21 01:20:28 1007 AUBERT THIERRY SEM 16 M 21 11.18
22 01:20:33 1110 LECUBIN JULIEN SEM 17 M 22 CASSIS TRIATHLON 11.17
23 01:20:49 1163 SAISSAC BAPTISTE SEM 18 M 23 11.14
24 01:21:01 1162 SABUCO ALAIN M3M 1 M 24 CAF AIX EN PROVENCE 11.11
25 01:21:38 1128 MONGOIN FLORIAN SEM 19 M 25 11.02
26 01:25:00 1119 MARLIEN CLEMENT SEM 20 M 26 SCO STE MARGUERITE 10.59
27 01:25:26 1140 PARIS BENJAMIN SEM 21 M 27 10.53
28 01:27:05 1104 LAJUS FLORIAN SEM 22 M 28 10.33
29 01:27:10 1040 CRESPI JEAN-NOEL M2M 2 M 29 FOULEE DU CHASSELAS 10.33
30 01:28:00 1103 N:Anonyme 1103 P:Anonyme 1103 M1M 5 M 30 10.23
31 01:28:38 1126 MILHE FRED SEM 23 M 31 10.15
32 01:28:45 1124 MERK NICOLAS M1M 6 M 32 A.S COEUR A COEUR 10.14
33 01:28:55 1054 DUPRAT FRANCOIS M1M 7 M 33 10.12
34 01:29:31 1158 ROOS VALENTIN SEM 24 M 34 10.05
35 01:30:24 1014 BERTHET-TISSOT DAMIEN SEM 25 M 35 9.96
36 01:30:53 1129 MOSSE LAURENT SEM 26 M 36 SPORTING CLUB PAM 9.90
37 01:31:00 1085 GUIGLIARELLI HERVE M2M 3 M 37 9.89
38 01:31:03 1036 CORALLO OLIVIER SEM 27 M 38 9.88
39 01:31:40 1099 LABROT REMY M1M 8 M 39 9.82
40 01:31:51 1017 BONNAFOUS CYRIL SEM 28 M 40 9.80
41 01:32:17 1072 GAUTIER CLAUDE SEM 29 M 41 9.75
42 01:32:43 1058 ELOUARD MATTHIEU M1M 9 M 42 CAF DE HAUTE PROVENCE 04 9.71
43 01:33:29 1064 FELTRIN EMMANUEL SEM 30 M 43 9.63
44 01:34:02 1177 TONDU DANIEL M2M 4 M 44 9.57
45 01:34:23 1086 GUILLEMOZ PIERRE-ANTOINE SEM 31 M 45 CAF 9.54
46 01:34:32 1149 REBOLLO JEROME SEM 32 M 46 9.52
47 01:34:57 1094 JACQUES CEDRIC M1M 10 M 47 GEMALTO 9.48
48 01:35:01 1112 LEI ETIENNE ESM 1 M 48 9.47
49 01:35:36 1045 DAVIDSON STEPHANIE SEF 1 F 1 9.41
50 01:35:39 1042 CROUZET NICOLAS M1M 11 M 49 9.41
51 01:36:15 1101 LACAPELLE CAROLINE M1F 1 F 2 LA CIOTAT TRIATHLON 9.35
52 01:36:20 1030 CHANAS GUILLAUME SEM 33 M 50 SCO STE-MARGUERITE 9.34
53 01:36:44 1050 DIWUY STEPHANE SEM 34 M 51 9.30
54 01:37:56 1012 BARONI PATRICK M2M 5 M 52 TEAM RAIDLIGHT 9.19
55 01:37:59 1116 LORRE STEPHANE M1M 12 M 53 9.19
56 01:38:01 1019 BOSSY PATRICK M1M 13 M 54 9.18
57 01:38:10 1133 NEUNS DIDIER M1M 14 M 55 VTT SAINTE BAUME 9.17
58 01:38:18 1221 QUILES NICOLAS SEM 35 M 56 9.16
59 01:38:27 1156 RIVOIRE REMI M2M 6 M 57 9.14
60 01:38:28 1223 MICHEL JEAN-CHRISTOPHE M1M 15 M 58 TRAIL CLUB DE PROVENCE 9.14
61 01:38:29 1037 CORDIER PIERRE-YVES SEM 36 M 59 9.14
62 01:38:33 1011 BARON LAW-THIERRY M1M 16 M 60 9.13
63 01:38:35 1043 CUYNAT GERARD M3M 2 M 61 LES TONTONTRAILERS 9.13
64 01:38:39 1229 DUCHEMIN LAURENT M1M 17 M 62 9.12
65 01:38:43 1071 GARCIN OLIVIER SEM 37 M 63 9.12
66 01:39:07 1220 MICACHE MARC SEM 38 M 64 9.08
67 01:39:14 1027 CAVELLINI FLORIAN SEM 39 M 65 9.07
68 01:39:20 1161 ROUZAUD MAGALI SEF 2 F 3 9.06
69 01:39:22 1160 ROUZAUD IVAN M1M 18 M 66 9.06
70 01:39:36 1016 BOLDRINI FABRICE SEM 40 M 67 9.04
71 01:39:53 1151 RIBAT MATTHIEU SEM 41 M 68 9.01
72 01:39:55 1132 NEL FRANCOIS SEM 42 M 69 9.01
73 01:39:57 1005 ARNOULT BENOIT SEM 43 M 70 9.00
74 01:39:59 1073 GAUTIER ETIENNE ESM 2 M 71 9.00
75 01:40:01 1222 RAFFAELLI FRANCOIS SEM 44 M 72 9.00
76 01:40:07 1178 TORRENTE VERONIQUE M1F 2 F 4 8.99
77 01:40:09 1022 BRINGOUX LIONEL M1M 19 M 73 8.99
78 01:41:23 1018 BOSSY JEROME SEM 45 M 74 8.88
79 01:41:26 1107 LE-BARON ADRIEN CAM 1 M 75 8.87
80 01:41:28 1169 STEINBERG ANTHONY SEM 46 M 76 8.87
81 01:41:33 1152 RICHARDET GILLES M2M 7 M 77 8.86
82 01:41:38 1081 GONCALVES CAROLE M1F 3 F 5 8.86
83 01:41:45 1084 GUENOUN JEROME M1M 20 M 78 AA ALLAUDIENNE 8.85
84 01:42:19 1159 ROULET REMY M1M 21 M 79 8.80
85 01:43:03 1075 GENTET ERIC M1M 22 M 80 CAF VENTOUX 8.73
86 01:43:48 1001 ACHARD GILLES M2M 8 M 81 FOULEE PORT DE BOUCAINE-TONTONTRAILERS 8.67
87 01:44:13 1207 GAYARD FLORENCE M1F 4 F 6 GEM TRAIL ATHLE 8.64
88 01:44:16 1026 CANAL CHARLOTTE SEF 3 F 7 8.63
89 01:44:25 1115 LOIZEAU ERIC M1M 23 M 82 8.62
90 01:45:40 1141 PARZYCH VICTOR SEM 47 M 83 8.52
91 01:45:43 1136 OBRE FREDERIC M1M 24 M 84 8.51
92 01:45:45 1215 MAZE CARINE M2F 1 F 8 SARDINE TRI 8.51
93 01:45:47 1034 CIZERON GERAUD M1M 25 M 85 8.51
94 01:45:52 1201 LANZA NICOLAS SEM 48 M 86 8.50
95 01:46:01 1021 BOUVIER SAMI M1M 26 M 87 8.49
96 01:46:05 1168 SIMONIN GERARD M3M 3 M 88 8.48
97 01:46:13 1074 GENET EMILIE SEF 4 F 9 8.47
98 01:46:15 1097 JU NICO SEM 49 M 89 8.47
99 01:46:23 1214 PIEDNOIR THIERRY M1M 27 M 90 GENERATION TRAIL MARSEILLE 8.46
100 01:46:25 1213 N:Anonyme 1213 P:Anonyme 1213 SEM 50 M 91 8.46